CMB weather

Bandaranaike International Colombo Airport
Colombo, Western Province, Sri Lanka

Public forecast

Using degrees Celsius for public forecast. Weather courtesy of forecast.io.

METAR (pilot weather report)

Retrieved 2017/09/25 06:10 UTC (47 minutes ago):

VCBI 250610Z 27009KT 230V310 9999 SCT016 FEW018CB SCT025 30/23 Q1010 NOSIG RMK NE/E/SE

TAF (pilot weather forecast)

Forecast is more than 12 hours old.

Retrieved 2017/09/23 12:55 UTC (2 days ago):

TAF VCBI 230940Z 2312/2418 21010KT 9999 SCT018 TX31/2408Z TN26/2400Z TEMPO 2400/2403 SCT018 FEW020CB